sensor_id;sensor_type;location;lat;lon;timestamp;pressure;altitude;pressure_sealevel;temperature;humidity
8653;BME280;4364;52.426;9.424;2023-06-19T00:00:43;100601.28;;;22.42;44.54
8653;BME280;4364;52.426;9.424;2023-06-19T00:03:09;100600.94;;;22.44;44.31
8653;BME280;4364;52.426;9.424;2023-06-19T00:05:36;100597.97;;;22.52;44.43
8653;BME280;4364;52.426;9.424;2023-06-19T00:08:03;100590.38;;;22.49;43.80
8653;BME280;4364;52.426;9.424;2023-06-19T00:10:32;100588.09;;;22.55;44.14
8653;BME280;4364;52.426;9.424;2023-06-19T00:12:58;100590.28;;;22.46;44.22
8653;BME280;4364;52.426;9.424;2023-06-19T00:15:26;100587.16;;;22.47;44.12
8653;BME280;4364;52.426;9.424;2023-06-19T00:17:56;100586.34;;;22.47;44.30
8653;BME280;4364;52.426;9.424;2023-06-19T00:20:23;100580.44;;;22.48;44.42
8653;BME280;4364;52.426;9.424;2023-06-19T00:22:50;100588.16;;;22.39;44.47
8653;BME280;4364;52.426;9.424;2023-06-19T00:25:19;100578.94;;;22.35;44.63
8653;BME280;4364;52.426;9.424;2023-06-19T00:27:46;100571.59;;;22.27;44.93
8653;BME280;4364;52.426;9.424;2023-06-19T00:30:13;100570.91;;;22.30;44.68
8653;BME280;4364;52.426;9.424;2023-06-19T00:32:39;100566.06;;;22.27;45.03
8653;BME280;4364;52.426;9.424;2023-06-19T00:35:16;100564.47;;;22.26;45.13
8653;BME280;4364;52.426;9.424;2023-06-19T00:37:46;100566.06;;;22.27;45.09
8653;BME280;4364;52.426;9.424;2023-06-19T00:40:19;100562.31;;;22.35;44.89
8653;BME280;4364;52.426;9.424;2023-06-19T00:42:47;100556.28;;;22.29;44.80
8653;BME280;4364;52.426;9.424;2023-06-19T00:45:14;100549.44;;;22.27;44.77
8653;BME280;4364;52.426;9.424;2023-06-19T00:47:41;100553.03;;;22.27;44.92
8653;BME280;4364;52.426;9.424;2023-06-19T00:50:08;100543.47;;;22.25;44.83
8653;BME280;4364;52.426;9.424;2023-06-19T00:52:35;100543.91;;;22.27;44.54
8653;BME280;4364;52.426;9.424;2023-06-19T00:55:02;100538.84;;;22.29;44.42
8653;BME280;4364;52.426;9.424;2023-06-19T00:57:30;100542.75;;;22.44;43.87
8653;BME280;4364;52.426;9.424;2023-06-19T00:59:57;100539.91;;;22.24;44.38
8653;BME280;4364;52.426;9.424;2023-06-19T01:02:26;100540.16;;;22.35;44.38
8653;BME280;4364;52.426;9.424;2023-06-19T01:04:53;100544.66;;;22.24;44.58
8653;BME280;4364;52.426;9.424;2023-06-19T01:07:30;100532.22;;;22.33;44.31
8653;BME280;4364;52.426;9.424;2023-06-19T01:10:05;100536.69;;;22.22;44.80
8653;BME280;4364;52.426;9.424;2023-06-19T01:12:42;100550.44;;;22.18;44.79
8653;BME280;4364;52.426;9.424;2023-06-19T01:15:15;100541.63;;;22.29;44.53
8653;BME280;4364;52.426;9.424;2023-06-19T01:17:41;100546.59;;;22.23;44.63
8653;BME280;4364;52.426;9.424;2023-06-19T01:20:09;100540.69;;;22.25;44.45
8653;BME280;4364;52.426;9.424;2023-06-19T01:22:37;100533.66;;;22.11;44.92
8653;BME280;4364;52.426;9.424;2023-06-19T01:25:05;100528.47;;;22.10;44.95
8653;BME280;4364;52.426;9.424;2023-06-19T01:27:35;100525.72;;;22.10;44.38
8653;BME280;4364;52.426;9.424;2023-06-19T01:30:02;100523.75;;;22.10;44.60
8653;BME280;4364;52.426;9.424;2023-06-19T01:32:33;100523.13;;;22.17;44.99
8653;BME280;4364;52.426;9.424;2023-06-19T01:35:02;100530.03;;;22.07;45.10
8653;BME280;4364;52.426;9.424;2023-06-19T01:37:30;100526.91;;;22.09;44.99
8653;BME280;4364;52.426;9.424;2023-06-19T01:40:02;100528.31;;;22.02;45.09
8653;BME280;4364;52.426;9.424;2023-06-19T01:42:32;100536.81;;;21.94;45.59
8653;BME280;4364;52.426;9.424;2023-06-19T01:45:00;100526.97;;;21.96;45.18
8653;BME280;4364;52.426;9.424;2023-06-19T01:47:30;100522.91;;;21.90;45.73
8653;BME280;4364;52.426;9.424;2023-06-19T01:49:56;100524.66;;;21.98;45.51
8653;BME280;4364;52.426;9.424;2023-06-19T01:52:26;100526.78;;;22.05;45.50
8653;BME280;4364;52.426;9.424;2023-06-19T01:54:53;100522.44;;;21.88;45.82
8653;BME280;4364;52.426;9.424;2023-06-19T01:57:20;100526.66;;;21.82;46.10
8653;BME280;4364;52.426;9.424;2023-06-19T01:59:47;100525.13;;;21.84;46.42
8653;BME280;4364;52.426;9.424;2023-06-19T02:02:13;100526.53;;;21.62;46.73
8653;BME280;4364;52.426;9.424;2023-06-19T02:04:40;100515.41;;;21.59;46.58
8653;BME280;4364;52.426;9.424;2023-06-19T02:07:06;100512.97;;;21.57;47.09
8653;BME280;4364;52.426;9.424;2023-06-19T02:09:33;100500.91;;;21.50;47.36
8653;BME280;4364;52.426;9.424;2023-06-19T02:12:00;100502.78;;;21.45;47.59
8653;BME280;4364;52.426;9.424;2023-06-19T02:14:27;100497.00;;;21.51;47.59
8653;BME280;4364;52.426;9.424;2023-06-19T02:16:53;100491.97;;;21.40;48.00
8653;BME280;4364;52.426;9.424;2023-06-19T02:19:20;100486.09;;;21.42;47.28
8653;BME280;4364;52.426;9.424;2023-06-19T02:21:48;100482.81;;;21.52;47.07
8653;BME280;4364;52.426;9.424;2023-06-19T02:24:14;100488.50;;;21.43;47.11
8653;BME280;4364;52.426;9.424;2023-06-19T02:26:41;100479.28;;;21.39;47.43
8653;BME280;4364;52.426;9.424;2023-06-19T02:29:10;100481.88;;;21.32;47.51
8653;BME280;4364;52.426;9.424;2023-06-19T02:31:36;100484.28;;;21.34;47.92
8653;BME280;4364;52.426;9.424;2023-06-19T02:34:04;100488.13;;;21.45;47.56
8653;BME280;4364;52.426;9.424;2023-06-19T02:36:31;100499.34;;;21.36;47.29
8653;BME280;4364;52.426;9.424;2023-06-19T02:38:58;100500.53;;;21.35;47.52
8653;BME280;4364;52.426;9.424;2023-06-19T02:41:24;100502.03;;;21.33;47.46
8653;BME280;4364;52.426;9.424;2023-06-19T02:43:51;100505.16;;;21.31;47.61
8653;BME280;4364;52.426;9.424;2023-06-19T02:46:17;100503.75;;;21.37;47.76
8653;BME280;4364;52.426;9.424;2023-06-19T02:48:44;100501.88;;;21.41;47.28
8653;BME280;4364;52.426;9.424;2023-06-19T02:51:10;100491.63;;;21.42;47.05
8653;BME280;4364;52.426;9.424;2023-06-19T02:53:37;100488.84;;;21.42;47.70
8653;BME280;4364;52.426;9.424;2023-06-19T02:56:04;100492.19;;;21.48;47.11
8653;BME280;4364;52.426;9.424;2023-06-19T02:58:31;100477.19;;;21.49;47.50
8653;BME280;4364;52.426;9.424;2023-06-19T03:00:57;100490.88;;;21.45;46.99
8653;BME280;4364;52.426;9.424;2023-06-19T03:03:24;100493.22;;;21.43;47.39
8653;BME280;4364;52.426;9.424;2023-06-19T03:05:51;100489.47;;;21.35;47.33
8653;BME280;4364;52.426;9.424;2023-06-19T03:08:17;100494.78;;;21.28;47.61
8653;BME280;4364;52.426;9.424;2023-06-19T03:10:44;100486.50;;;21.28;48.05
8653;BME280;4364;52.426;9.424;2023-06-19T03:13:12;100496.25;;;21.38;47.69
8653;BME280;4364;52.426;9.424;2023-06-19T03:15:39;100493.44;;;21.50;46.82
8653;BME280;4364;52.426;9.424;2023-06-19T03:18:06;100493.31;;;21.31;47.91
8653;BME280;4364;52.426;9.424;2023-06-19T03:20:37;100484.47;;;21.41;47.55
8653;BME280;4364;52.426;9.424;2023-06-19T03:23:04;100475.03;;;21.42;47.61
8653;BME280;4364;52.426;9.424;2023-06-19T03:25:31;100488.94;;;21.45;47.11
8653;BME280;4364;52.426;9.424;2023-06-19T03:28:02;100497.91;;;21.26;47.88
8653;BME280;4364;52.426;9.424;2023-06-19T03:30:29;100494.34;;;21.26;47.91
8653;BME280;4364;52.426;9.424;2023-06-19T03:32:57;100510.69;;;21.31;47.93
8653;BME280;4364;52.426;9.424;2023-06-19T03:35:37;100511.13;;;21.33;48.19
8653;BME280;4364;52.426;9.424;2023-06-19T03:38:05;100505.25;;;21.35;48.22
8653;BME280;4364;52.426;9.424;2023-06-19T03:40:32;100503.56;;;21.30;48.28
8653;BME280;4364;52.426;9.424;2023-06-19T03:43:05;100500.28;;;21.40;47.56
8653;BME280;4364;52.426;9.424;2023-06-19T03:45:34;100503.91;;;21.28;47.95
8653;BME280;4364;52.426;9.424;2023-06-19T03:48:01;100512.22;;;21.28;48.35
8653;BME280;4364;52.426;9.424;2023-06-19T03:50:28;100502.03;;;21.33;48.12
8653;BME280;4364;52.426;9.424;2023-06-19T03:52:55;100506.50;;;21.37;48.28
8653;BME280;4364;52.426;9.424;2023-06-19T03:55:21;100513.09;;;21.33;48.13
8653;BME280;4364;52.426;9.424;2023-06-19T03:57:48;100517.63;;;21.25;48.47
8653;BME280;4364;52.426;9.424;2023-06-19T04:00:16;100518.44;;;21.25;49.23
8653;BME280;4364;52.426;9.424;2023-06-19T04:02:47;100508.84;;;21.35;51.76
8653;BME280;4364;52.426;9.424;2023-06-19T04:05:14;100498.81;;;21.31;52.49
8653;BME280;4364;52.426;9.424;2023-06-19T04:07:44;100511.63;;;21.07;54.04
8653;BME280;4364;52.426;9.424;2023-06-19T04:10:13;100508.28;;;21.01;54.44
8653;BME280;4364;52.426;9.424;2023-06-19T04:12:40;100504.66;;;20.97;54.45
8653;BME280;4364;52.426;9.424;2023-06-19T04:15:11;100499.56;;;20.99;54.56
8653;BME280;4364;52.426;9.424;2023-06-19T04:17:37;100497.06;;;20.94;54.52
8653;BME280;4364;52.426;9.424;2023-06-19T04:20:05;100501.97;;;21.01;54.37
8653;BME280;4364;52.426;9.424;2023-06-19T04:22:39;100493.94;;;20.96;54.35
8653;BME280;4364;52.426;9.424;2023-06-19T04:25:07;100501.44;;;20.95;54.34
8653;BME280;4364;52.426;9.424;2023-06-19T04:27:34;100506.50;;;20.93;54.28
8653;BME280;4364;52.426;9.424;2023-06-19T04:30:06;100505.03;;;21.12;53.03
8653;BME280;4364;52.426;9.424;2023-06-19T04:32:34;100504.19;;;20.95;53.78
8653;BME280;4364;52.426;9.424;2023-06-19T04:35:08;100511.78;;;20.98;53.54
8653;BME280;4364;52.426;9.424;2023-06-19T04:37:35;100505.09;;;20.99;52.53
8653;BME280;4364;52.426;9.424;2023-06-19T04:40:09;100499.56;;;20.99;53.80
8653;BME280;4364;52.426;9.424;2023-06-19T04:42:36;100505.53;;;21.01;54.09
8653;BME280;4364;52.426;9.424;2023-06-19T04:45:05;100512.31;;;21.04;54.20
8653;BME280;4364;52.426;9.424;2023-06-19T04:47:36;100510.75;;;21.19;52.09
8653;BME280;4364;52.426;9.424;2023-06-19T04:50:18;100511.72;;;21.10;52.27
8653;BME280;4364;52.426;9.424;2023-06-19T04:52:44;100511.03;;;21.14;52.21
8653;BME280;4364;52.426;9.424;2023-06-19T04:55:11;100515.84;;;21.17;52.05
8653;BME280;4364;52.426;9.424;2023-06-19T04:57:37;100507.16;;;21.18;51.84
8653;BME280;4364;52.426;9.424;2023-06-19T05:00:05;100511.66;;;21.23;51.93
8653;BME280;4364;52.426;9.424;2023-06-19T05:02:36;100513.34;;;21.27;51.54
8653;BME280;4364;52.426;9.424;2023-06-19T05:05:04;100518.19;;;21.31;51.15
8653;BME280;4364;52.426;9.424;2023-06-19T05:07:30;100519.50;;;21.49;50.06
8653;BME280;4364;52.426;9.424;2023-06-19T05:09:58;100515.88;;;21.33;50.44
8653;BME280;4364;52.426;9.424;2023-06-19T05:12:26;100525.97;;;21.41;50.45
8653;BME280;4364;52.426;9.424;2023-06-19T05:14:52;100520.50;;;21.44;50.15
8653;BME280;4364;52.426;9.424;2023-06-19T05:17:19;100526.50;;;21.46;50.27
8653;BME280;4364;52.426;9.424;2023-06-19T05:19:45;100529.13;;;21.55;50.56
8653;BME280;4364;52.426;9.424;2023-06-19T05:22:12;100534.06;;;21.62;50.49
8653;BME280;4364;52.426;9.424;2023-06-19T05:24:38;100536.28;;;21.72;49.88
8653;BME280;4364;52.426;9.424;2023-06-19T05:27:06;100530.75;;;21.72;49.92
8653;BME280;4364;52.426;9.424;2023-06-19T05:29:33;100524.16;;;21.77;50.02
8653;BME280;4364;52.426;9.424;2023-06-19T05:31:59;100532.34;;;21.73;50.03
8653;BME280;4364;52.426;9.424;2023-06-19T05:34:26;100534.31;;;21.73;50.17
8653;BME280;4364;52.426;9.424;2023-06-19T05:36:52;100521.81;;;21.79;50.06
8653;BME280;4364;52.426;9.424;2023-06-19T05:39:19;100526.38;;;21.87;50.42
8653;BME280;4364;52.426;9.424;2023-06-19T05:41:45;100520.75;;;21.83;50.34
8653;BME280;4364;52.426;9.424;2023-06-19T05:44:13;100533.41;;;21.84;50.41
8653;BME280;4364;52.426;9.424;2023-06-19T05:46:43;100533.06;;;21.86;50.53
8653;BME280;4364;52.426;9.424;2023-06-19T05:49:10;100528.31;;;21.87;50.94
8653;BME280;4364;52.426;9.424;2023-06-19T05:51:36;100534.31;;;21.89;50.42
8653;BME280;4364;52.426;9.424;2023-06-19T05:54:03;100532.44;;;21.93;50.62
8653;BME280;4364;52.426;9.424;2023-06-19T05:56:32;100537.25;;;21.96;51.02
8653;BME280;4364;52.426;9.424;2023-06-19T05:59:00;100539.38;;;22.02;51.29
8653;BME280;4364;52.426;9.424;2023-06-19T06:01:28;100550.63;;;22.10;51.16
8653;BME280;4364;52.426;9.424;2023-06-19T06:03:56;100560.56;;;22.11;51.38
8653;BME280;4364;52.426;9.424;2023-06-19T06:06:23;100568.84;;;22.11;51.89
8653;BME280;4364;52.426;9.424;2023-06-19T06:08:50;100566.72;;;22.04;52.26
8653;BME280;4364;52.426;9.424;2023-06-19T06:11:18;100582.44;;;22.00;52.54
8653;BME280;4364;52.426;9.424;2023-06-19T06:13:44;100582.69;;;21.95;53.15
8653;BME280;4364;52.426;9.424;2023-06-19T06:16:11;100585.03;;;21.93;53.32
8653;BME280;4364;52.426;9.424;2023-06-19T06:18:37;100580.41;;;21.97;53.50
8653;BME280;4364;52.426;9.424;2023-06-19T06:21:04;100574.47;;;21.98;53.62
8653;BME280;4364;52.426;9.424;2023-06-19T06:23:32;100577.44;;;22.06;54.17
8653;BME280;4364;52.426;9.424;2023-06-19T06:25:58;100578.16;;;22.02;54.11
8653;BME280;4364;52.426;9.424;2023-06-19T06:28:29;100575.28;;;22.15;54.17
8653;BME280;4364;52.426;9.424;2023-06-19T06:30:55;100579.47;;;22.25;54.05
8653;BME280;4364;52.426;9.424;2023-06-19T06:33:23;100578.59;;;22.36;53.60
8653;BME280;4364;52.426;9.424;2023-06-19T06:35:49;100578.31;;;22.42;53.72
8653;BME280;4364;52.426;9.424;2023-06-19T06:38:17;100577.03;;;22.55;53.63
8653;BME280;4364;52.426;9.424;2023-06-19T06:40:44;100582.09;;;22.69;53.84
8653;BME280;4364;52.426;9.424;2023-06-19T06:43:10;100579.13;;;22.78;53.63
8653;BME280;4364;52.426;9.424;2023-06-19T06:45:37;100576.06;;;22.83;52.94
8653;BME280;4364;52.426;9.424;2023-06-19T06:48:05;100585.47;;;22.98;53.05
8653;BME280;4364;52.426;9.424;2023-06-19T06:50:42;100589.84;;;22.99;52.79
8653;BME280;4364;52.426;9.424;2023-06-19T06:53:08;100600.13;;;22.98;53.51
8653;BME280;4364;52.426;9.424;2023-06-19T06:55:35;100593.94;;;23.05;53.13
8653;BME280;4364;52.426;9.424;2023-06-19T06:58:02;100591.31;;;23.12;53.41
8653;BME280;4364;52.426;9.424;2023-06-19T07:00:29;100601.53;;;23.47;53.01
8653;BME280;4364;52.426;9.424;2023-06-19T07:02:55;100604.25;;;23.86;51.88
8653;BME280;4364;52.426;9.424;2023-06-19T07:05:22;100609.59;;;24.21;51.56
8653;BME280;4364;52.426;9.424;2023-06-19T07:07:48;100618.53;;;24.08;52.35
8653;BME280;4364;52.426;9.424;2023-06-19T07:10:15;100616.41;;;24.01;52.35
8653;BME280;4364;52.426;9.424;2023-06-19T07:12:46;100622.78;;;24.01;52.82
8653;BME280;4364;52.426;9.424;2023-06-19T07:15:12;100622.72;;;23.98;53.26
8653;BME280;4364;52.426;9.424;2023-06-19T07:17:39;100624.91;;;24.12;53.17
8653;BME280;4364;52.426;9.424;2023-06-19T07:20:06;100626.19;;;24.41;52.01
8653;BME280;4364;52.426;9.424;2023-06-19T07:22:33;100616.56;;;24.58;50.56
8653;BME280;4364;52.426;9.424;2023-06-19T07:25:00;100625.53;;;24.74;50.35
8653;BME280;4364;52.426;9.424;2023-06-19T07:27:26;100619.91;;;24.71;50.52
8653;BME280;4364;52.426;9.424;2023-06-19T07:29:54;100623.75;;;24.89;49.69
8653;BME280;4364;52.426;9.424;2023-06-19T07:32:20;100625.34;;;24.90;49.92
8653;BME280;4364;52.426;9.424;2023-06-19T07:34:47;100629.22;;;24.86;50.22
8653;BME280;4364;52.426;9.424;2023-06-19T07:37:14;100639.25;;;24.64;50.99
8653;BME280;4364;52.426;9.424;2023-06-19T07:39:48;100635.59;;;24.56;51.76
8653;BME280;4364;52.426;9.424;2023-06-19T07:42:14;100632.78;;;24.83;51.35
8653;BME280;4364;52.426;9.424;2023-06-19T07:44:42;100628.41;;;24.82;51.19
8653;BME280;4364;52.426;9.424;2023-06-19T07:47:09;100631.66;;;24.60;51.25
8653;BME280;4364;52.426;9.424;2023-06-19T07:49:36;100649.81;;;24.54;51.93
8653;BME280;4364;52.426;9.424;2023-06-19T07:52:04;100642.59;;;24.50;52.09
8653;BME280;4364;52.426;9.424;2023-06-19T07:54:33;100639.94;;;24.84;51.08
8653;BME280;4364;52.426;9.424;2023-06-19T07:57:01;100636.28;;;25.06;50.71
8653;BME280;4364;52.426;9.424;2023-06-19T07:59:27;100636.97;;;25.26;50.20
8653;BME280;4364;52.426;9.424;2023-06-19T08:01:54;100640.44;;;25.54;49.54
8653;BME280;4364;52.426;9.424;2023-06-19T08:04:20;100651.88;;;25.45;50.18
8653;BME280;4364;52.426;9.424;2023-06-19T08:06:47;100633.34;;;25.56;49.68
8653;BME280;4364;52.426;9.424;2023-06-19T08:09:13;100636.94;;;25.60;49.65
8653;BME280;4364;52.426;9.424;2023-06-19T08:11:40;100631.09;;;25.73;49.95
8653;BME280;4364;52.426;9.424;2023-06-19T08:14:06;100645.34;;;26.01;50.01
8653;BME280;4364;52.426;9.424;2023-06-19T08:16:33;100640.22;;;25.69;49.96
8653;BME280;4364;52.426;9.424;2023-06-19T08:19:00;100645.19;;;25.91;49.52
8653;BME280;4364;52.426;9.424;2023-06-19T08:21:26;100644.13;;;26.02;49.38
8653;BME280;4364;52.426;9.424;2023-06-19T08:23:53;100642.28;;;25.76;49.95
8653;BME280;4364;52.426;9.424;2023-06-19T08:26:19;100648.47;;;25.96;50.07
8653;BME280;4364;52.426;9.424;2023-06-19T08:28:46;100642.94;;;26.00;50.15
8653;BME280;4364;52.426;9.424;2023-06-19T08:31:14;100641.72;;;25.97;49.16
8653;BME280;4364;52.426;9.424;2023-06-19T08:33:40;100642.81;;;25.93;49.63
8653;BME280;4364;52.426;9.424;2023-06-19T08:36:07;100639.19;;;25.85;50.12
8653;BME280;4364;52.426;9.424;2023-06-19T08:38:34;100638.13;;;25.97;49.40
8653;BME280;4364;52.426;9.424;2023-06-19T08:41:01;100638.94;;;26.01;49.82
8653;BME280;4364;52.426;9.424;2023-06-19T08:43:27;100643.00;;;26.07;49.50
8653;BME280;4364;52.426;9.424;2023-06-19T08:46:09;100641.91;;;26.22;49.19
8653;BME280;4364;52.426;9.424;2023-06-19T08:48:36;100639.09;;;26.15;49.31
8653;BME280;4364;52.426;9.424;2023-06-19T08:51:04;100637.56;;;26.21;49.59
8653;BME280;4364;52.426;9.424;2023-06-19T08:53:35;100640.91;;;26.41;49.43
8653;BME280;4364;52.426;9.424;2023-06-19T08:56:05;100639.16;;;26.26;49.34
8653;BME280;4364;52.426;9.424;2023-06-19T08:58:32;100647.56;;;26.30;48.40
8653;BME280;4364;52.426;9.424;2023-06-19T09:00:58;100653.19;;;26.33;48.78
8653;BME280;4364;52.426;9.424;2023-06-19T09:03:25;100651.34;;;26.55;48.69
8653;BME280;4364;52.426;9.424;2023-06-19T09:05:52;100654.91;;;26.52;48.18
8653;BME280;4364;52.426;9.424;2023-06-19T09:08:21;100656.88;;;26.48;48.58
8653;BME280;4364;52.426;9.424;2023-06-19T09:11:02;100671.81;;;26.25;49.20
8653;BME280;4364;52.426;9.424;2023-06-19T09:13:30;100664.69;;;26.28;48.22
8653;BME280;4364;52.426;9.424;2023-06-19T09:16:03;100668.22;;;26.25;48.56
8653;BME280;4364;52.426;9.424;2023-06-19T09:18:31;100659.19;;;26.39;48.69
8653;BME280;4364;52.426;9.424;2023-06-19T09:20:59;100675.19;;;26.53;48.09
8653;BME280;4364;52.426;9.424;2023-06-19T09:23:25;100667.47;;;26.80;47.58
8653;BME280;4364;52.426;9.424;2023-06-19T09:25:57;100680.13;;;26.67;47.37
8653;BME280;4364;52.426;9.424;2023-06-19T09:28:27;100679.78;;;26.75;47.73
8653;BME280;4364;52.426;9.424;2023-06-19T09:31:03;100681.16;;;27.03;47.66
8653;BME280;4364;52.426;9.424;2023-06-19T09:33:33;100678.16;;;27.44;47.22
8653;BME280;4364;52.426;9.424;2023-06-19T09:36:03;100682.09;;;27.29;46.14
8653;BME280;4364;52.426;9.424;2023-06-19T09:38:32;100678.31;;;26.96;46.45
8653;BME280;4364;52.426;9.424;2023-06-19T09:41:01;100684.72;;;26.96;46.65
8653;BME280;4364;52.426;9.424;2023-06-19T09:43:42;100689.16;;;27.08;46.75
8653;BME280;4364;52.426;9.424;2023-06-19T09:46:14;100687.66;;;27.25;46.74
8653;BME280;4364;52.426;9.424;2023-06-19T09:48:42;100682.88;;;27.29;47.08
8653;BME280;4364;52.426;9.424;2023-06-19T09:51:19;100684.13;;;27.39;46.89
8653;BME280;4364;52.426;9.424;2023-06-19T09:53:51;100696.38;;;27.16;46.47
8653;BME280;4364;52.426;9.424;2023-06-19T09:56:17;100698.91;;;26.77;47.50
8653;BME280;4364;52.426;9.424;2023-06-19T09:58:50;100706.53;;;26.80;47.66
8653;BME280;4364;52.426;9.424;2023-06-19T10:01:17;100700.97;;;26.84;48.00
8653;BME280;4364;52.426;9.424;2023-06-19T10:03:45;100702.81;;;26.65;48.36
8653;BME280;4364;52.426;9.424;2023-06-19T10:06:16;100697.84;;;26.99;47.85
8653;BME280;4364;52.426;9.424;2023-06-19T10:08:44;100700.91;;;26.76;48.46
8653;BME280;4364;52.426;9.424;2023-06-19T10:11:11;100711.38;;;26.42;49.36
8653;BME280;4364;52.426;9.424;2023-06-19T10:13:40;100706.56;;;26.39;48.64
8653;BME280;4364;52.426;9.424;2023-06-19T10:16:08;100705.47;;;26.51;48.68
8653;BME280;4364;52.426;9.424;2023-06-19T10:18:46;100714.16;;;26.90;48.07
8653;BME280;4364;52.426;9.424;2023-06-19T10:21:20;100705.22;;;26.67;47.74
8653;BME280;4364;52.426;9.424;2023-06-19T10:23:57;100716.16;;;26.90;47.11
8653;BME280;4364;52.426;9.424;2023-06-19T10:26:32;100716.44;;;27.37;46.61
8653;BME280;4364;52.426;9.424;2023-06-19T10:28:59;100730.81;;;27.46;45.48
8653;BME280;4364;52.426;9.424;2023-06-19T10:31:26;100721.91;;;27.22;45.59
8653;BME280;4364;52.426;9.424;2023-06-19T10:33:55;100716.78;;;26.69;46.50
8653;BME280;4364;52.426;9.424;2023-06-19T10:36:23;100712.69;;;26.14;47.61
8653;BME280;4364;52.426;9.424;2023-06-19T10:38:51;100723.94;;;26.21;47.89
8653;BME280;4364;52.426;9.424;2023-06-19T10:41:23;100716.47;;;26.33;46.13
8653;BME280;4364;52.426;9.424;2023-06-19T10:43:57;100715.41;;;26.48;46.48
8653;BME280;4364;52.426;9.424;2023-06-19T10:46:29;100715.88;;;26.57;46.47
8653;BME280;4364;52.426;9.424;2023-06-19T10:48:58;100715.72;;;26.91;46.54
8653;BME280;4364;52.426;9.424;2023-06-19T10:51:28;100723.09;;;27.25;45.76
8653;BME280;4364;52.426;9.424;2023-06-19T10:53:55;100722.03;;;27.37;45.25
8653;BME280;4364;52.426;9.424;2023-06-19T10:56:22;100712.41;;;27.30;45.49
8653;BME280;4364;52.426;9.424;2023-06-19T10:59:00;100723.16;;;27.28;45.95
8653;BME280;4364;52.426;9.424;2023-06-19T11:01:37;100719.72;;;26.87;45.96
8653;BME280;4364;52.426;9.424;2023-06-19T11:04:09;100716.09;;;26.86;46.38
8653;BME280;4364;52.426;9.424;2023-06-19T11:06:38;100710.28;;;27.13;46.05
8653;BME280;4364;52.426;9.424;2023-06-19T11:09:06;100724.31;;;27.20;45.08
8653;BME280;4364;52.426;9.424;2023-06-19T11:11:44;100722.25;;;27.10;45.22
8653;BME280;4364;52.426;9.424;2023-06-19T11:14:12;100724.19;;;27.02;45.97
8653;BME280;4364;52.426;9.424;2023-06-19T11:16:41;100732.53;;;26.95;45.97
8653;BME280;4364;52.426;9.424;2023-06-19T11:19:13;100739.88;;;26.69;45.54
8653;BME280;4364;52.426;9.424;2023-06-19T11:21:40;100730.38;;;26.33;47.11
8653;BME280;4364;52.426;9.424;2023-06-19T11:24:12;100729.72;;;26.02;47.92
8653;BME280;4364;52.426;9.424;2023-06-19T11:26:41;100732.50;;;26.02;47.87
8653;BME280;4364;52.426;9.424;2023-06-19T11:29:20;100737.28;;;26.46;46.89
8653;BME280;4364;52.426;9.424;2023-06-19T11:31:47;100738.75;;;26.33;47.08
8653;BME280;4364;52.426;9.424;2023-06-19T11:34:16;100738.06;;;26.43;46.78
8653;BME280;4364;52.426;9.424;2023-06-19T11:36:43;100742.44;;;26.89;45.38
8653;BME280;4364;52.426;9.424;2023-06-19T11:39:13;100740.59;;;27.11;44.34
8653;BME280;4364;52.426;9.424;2023-06-19T11:41:41;100733.34;;;27.03;43.98
8653;BME280;4364;52.426;9.424;2023-06-19T11:44:09;100730.47;;;27.54;43.71
8653;BME280;4364;52.426;9.424;2023-06-19T11:46:37;100744.09;;;27.78;42.89
8653;BME280;4364;52.426;9.424;2023-06-19T11:49:22;100747.19;;;27.47;43.17
8653;BME280;4364;52.426;9.424;2023-06-19T11:51:50;100742.94;;;27.89;43.39
8653;BME280;4364;52.426;9.424;2023-06-19T11:54:17;100741.69;;;27.69;43.45
8653;BME280;4364;52.426;9.424;2023-06-19T11:56:44;100748.47;;;27.68;43.00
8653;BME280;4364;52.426;9.424;2023-06-19T11:59:11;100746.53;;;27.83;43.46
8653;BME280;4364;52.426;9.424;2023-06-19T12:01:37;100748.56;;;27.93;43.19
8653;BME280;4364;52.426;9.424;2023-06-19T12:04:05;100765.97;;;27.58;43.47
8653;BME280;4364;52.426;9.424;2023-06-19T12:06:32;100759.91;;;27.38;44.21
8653;BME280;4364;52.426;9.424;2023-06-19T12:09:02;100764.34;;;27.49;44.88
8653;BME280;4364;52.426;9.424;2023-06-19T12:11:31;100768.59;;;27.25;44.81
8653;BME280;4364;52.426;9.424;2023-06-19T12:13:57;100768.31;;;27.45;44.87
8653;BME280;4364;52.426;9.424;2023-06-19T12:16:24;100772.44;;;27.72;43.68
8653;BME280;4364;52.426;9.424;2023-06-19T12:18:52;100763.63;;;27.63;43.56
8653;BME280;4364;52.426;9.424;2023-06-19T12:21:19;100761.16;;;27.51;44.01
8653;BME280;4364;52.426;9.424;2023-06-19T12:24:03;100751.69;;;27.73;44.10
8653;BME280;4364;52.426;9.424;2023-06-19T12:26:30;100762.03;;;27.66;43.34
8653;BME280;4364;52.426;9.424;2023-06-19T12:28:57;100768.31;;;27.45;43.92
8653;BME280;4364;52.426;9.424;2023-06-19T12:31:23;100766.34;;;27.45;44.30
8653;BME280;4364;52.426;9.424;2023-06-19T12:33:51;100776.09;;;27.17;44.19
8653;BME280;4364;52.426;9.424;2023-06-19T12:36:17;100773.38;;;26.73;45.28
8653;BME280;4364;52.426;9.424;2023-06-19T12:38:44;100755.16;;;26.86;45.41
8653;BME280;4364;52.426;9.424;2023-06-19T12:41:13;100765.13;;;26.87;45.04
8653;BME280;4364;52.426;9.424;2023-06-19T12:43:39;100774.25;;;26.80;44.74
8653;BME280;4364;52.426;9.424;2023-06-19T12:46:06;100767.56;;;26.92;44.18
8653;BME280;4364;52.426;9.424;2023-06-19T12:48:33;100770.47;;;27.07;43.67
8653;BME280;4364;52.426;9.424;2023-06-19T12:51:00;100773.50;;;26.87;43.62
8653;BME280;4364;52.426;9.424;2023-06-19T12:53:28;100776.66;;;27.41;43.38
8653;BME280;4364;52.426;9.424;2023-06-19T12:55:59;100770.56;;;27.25;43.99
8653;BME280;4364;52.426;9.424;2023-06-19T12:58:33;100771.28;;;27.11;43.55
8653;BME280;4364;52.426;9.424;2023-06-19T13:00:59;100775.09;;;27.44;43.39
8653;BME280;4364;52.426;9.424;2023-06-19T13:03:26;100761.06;;;27.29;43.45
8653;BME280;4364;52.426;9.424;2023-06-19T13:05:53;100781.69;;;27.21;43.31
8653;BME280;4364;52.426;9.424;2023-06-19T13:08:19;100780.13;;;27.20;43.39
8653;BME280;4364;52.426;9.424;2023-06-19T13:10:46;100772.78;;;26.97;43.36
8653;BME280;4364;52.426;9.424;2023-06-19T13:13:13;100772.81;;;27.05;43.63
8653;BME280;4364;52.426;9.424;2023-06-19T13:15:39;100778.91;;;27.17;43.99